Yildiz, Turkey

2:26 AM +03 on December 03, 2016 (GMT +0300)
Balmumcu | | Change Station

Elev 350 ft 41.06 °N, 29.02 °E | Updated 4 minutes ago

Clear
Clear
45.6 °F
Feels Like 42 °F
N
6.0
Wind Variable Wind from NNW
Gusts 6.0 mph

Today
High -- | Low -- °F
--% Chance of Precip.
Yesterday
High -- | Low -- °F
Precip. -- in
Pressure 29.89 in
Visibility -9999.0 miles
Clouds
Windchill 42 °F
Dew Point 29 °F
Humidity 53%
Rainfall 0.00 in
Snow Depth Not available.
8:11 AM 5:35 PM
Waxing Crescent, 11% visible
METAR LTBA 022250Z 32017KT CAVOK 09/M03 Q1012 NOSIG RMK RWY17L 32014KT RWY05 32017KT RWY23 32015KT
Pressure 29.89 in
Visibility -9999.0 miles
Clouds
Windchill 42 °F
Dew Point 29 °F
Humidity 53%
Rainfall 0.00 in
Snow Depth Not available.
8:11 AM 5:35 PM
Waxing Crescent, 11% visible
METAR LTBA 022250Z 32017KT CAVOK 09/M03 Q1012 NOSIG RMK RWY17L 32014KT RWY05 32017KT RWY23 32015KT

10-Day Weather Forecast

×

Almanac

Astronomy

Dec. 03, 2016 Rise Set
Actual Time
Civil Twilight
Nautical Twilight
Astronomical Twilight
Moon
Length of Visible Light
Length of Day
Tomorrow will be .
, % of the Moon is Illuminated

Today's Extremes

Country Highs Country Lows

Community

WunderPhotos

Upload Photos

1,955,378 photos uploaded!

WunderBlog® & News

Nearby

Air Quality

  Air Quality AQ Index Pollutant
Not available.

Snow Depth

Station Depth Elevation

Earthquake Activity

City Distance Mag. Time & Date
Minimum magnitude displayed is 2.5.

Coastal Water Temperatures

Place Temperature

Stations

Nearby Weather Stations

Station Location Temp. Windchill Dew Point Humidity Wind Precip. Elev Updated Type